Amboy, MN

12:28 PM CST on November 26, 2014 (GMT -0600)
Golly Farms | Change Station
CLOSE
Current Station
Personal Weather Station
Location: Winnebago, MN
Elevation: 1079 ft
Nearby Weather Stations

Elev 1079 ft 43.80 °N, 94.20 °W | Updated 1 minute ago

Snow
Snow
23.8 °F
Feels Like 16 °F
N
6.0
Wind Variable Wind from NNE
Gusts 11.0 mph

Today
High -- | Low -- °F
--% Chance of Precip.
Yesterday
High -- | Low -- °F
Precip. -- in
7:25 AM 4:42 PM
Waxing Crescent, 21% visible
Pressure 30.17 in
Visibility 0.8 miles
Clouds Overcast 100 ft
Windchill 16 °F
Dew Point 22 °F
Humidity 94%
Rainfall 0.00 in
Snow Depth Not available.
UV 1 out of 12
Pollen .10 out of 12
Air Quality Not available.
Flu Activity Not available.
METAR KJYG 261815Z AUTO 35012KT 3/4SM -SN OVC001 M04/M06 A3017 RMK AO2

More Conditions Fewer Conditions

Pressure 30.17 in
Visibility 0.8 miles
Clouds Overcast 100 ft
Windchill 16 °F
Dew Point 22 °F
Humidity 94%
Rainfall 0.00 in
Snow Depth Not available.
UV 1 out of 12
Pollen .10 out of 12
Air Quality Not available.
Flu Activity Not available.
METAR KJYG 261815Z AUTO 35012KT 3/4SM -SN OVC001 M04/M06 A3017 RMK AO2

More Conditions Fewer Conditions

10-Day Weather Forecast

Almanac

Astronomy

Nov. 26, 2014 Rise Set
Actual Time
Civil Twilight
Nautical Twilight
Astronomical Twilight
Moon
Length of Visible Light
Length of Day
Tomorrow will be .
, % of the Moon is Illuminated

Today's Extremes

State Highs State Lows

Community

WunderPhotos

Upload Photos

1,773,822 photos uploaded!

WunderBlogs® & News

Nearby

Air Quality

  Air Quality AQ Index Pollutant
Not available.

Snow Depth

Station Depth Elevation

Earthquake Activity

City Distance Mag. Time & Date
Minimum magnitude displayed is 2.5.

Coastal Water Temperatures

Place Temperature

Nearby Weather Stations